sensor_id;sensor_type;location;lat;lon;timestamp;P1;durP1;ratioP1;P2;durP2;ratioP2
10653;SDS011;5375;51.250;6.776;2024-01-06T00:01:40;4.57;;;3.87;;
10653;SDS011;5375;51.250;6.776;2024-01-06T00:04:06;6.37;;;3.37;;
10653;SDS011;5375;51.250;6.776;2024-01-06T00:06:32;5.67;;;3.50;;
10653;SDS011;5375;51.250;6.776;2024-01-06T00:08:58;5.10;;;3.67;;
10653;SDS011;5375;51.250;6.776;2024-01-06T00:11:23;3.60;;;3.17;;
10653;SDS011;5375;51.250;6.776;2024-01-06T00:13:49;3.93;;;3.40;;
10653;SDS011;5375;51.250;6.776;2024-01-06T00:16:19;4.70;;;3.20;;
10653;SDS011;5375;51.250;6.776;2024-01-06T00:18:45;4.23;;;3.00;;
10653;SDS011;5375;51.250;6.776;2024-01-06T00:21:11;4.63;;;3.00;;
10653;SDS011;5375;51.250;6.776;2024-01-06T00:23:39;4.67;;;3.13;;
10653;SDS011;5375;51.250;6.776;2024-01-06T00:26:05;4.10;;;3.20;;
10653;SDS011;5375;51.250;6.776;2024-01-06T00:28:31;4.93;;;3.00;;
10653;SDS011;5375;51.250;6.776;2024-01-06T00:30:57;4.70;;;2.93;;
10653;SDS011;5375;51.250;6.776;2024-01-06T00:33:23;4.77;;;3.13;;
10653;SDS011;5375;51.250;6.776;2024-01-06T00:35:49;4.97;;;3.23;;
10653;SDS011;5375;51.250;6.776;2024-01-06T00:38:15;3.77;;;2.73;;
10653;SDS011;5375;51.250;6.776;2024-01-06T00:40:41;4.43;;;2.87;;
10653;SDS011;5375;51.250;6.776;2024-01-06T00:43:06;4.83;;;2.83;;
10653;SDS011;5375;51.250;6.776;2024-01-06T00:45:32;3.73;;;2.83;;
10653;SDS011;5375;51.250;6.776;2024-01-06T00:47:58;3.60;;;3.00;;
10653;SDS011;5375;51.250;6.776;2024-01-06T00:50:24;3.40;;;2.53;;
10653;SDS011;5375;51.250;6.776;2024-01-06T00:52:50;5.37;;;3.23;;
10653;SDS011;5375;51.250;6.776;2024-01-06T00:55:17;3.43;;;2.80;;
10653;SDS011;5375;51.250;6.776;2024-01-06T00:57:44;2.93;;;2.40;;
10653;SDS011;5375;51.250;6.776;2024-01-06T01:00:09;3.63;;;2.40;;
10653;SDS011;5375;51.250;6.776;2024-01-06T01:02:35;3.93;;;3.00;;
10653;SDS011;5375;51.250;6.776;2024-01-06T01:05:01;3.47;;;2.43;;
10653;SDS011;5375;51.250;6.776;2024-01-06T01:07:27;3.10;;;2.40;;
10653;SDS011;5375;51.250;6.776;2024-01-06T01:09:53;4.13;;;2.70;;
10653;SDS011;5375;51.250;6.776;2024-01-06T01:12:19;3.27;;;2.60;;
10653;SDS011;5375;51.250;6.776;2024-01-06T01:14:45;4.73;;;3.07;;
10653;SDS011;5375;51.250;6.776;2024-01-06T01:17:11;3.50;;;2.40;;
10653;SDS011;5375;51.250;6.776;2024-01-06T01:19:37;2.53;;;2.33;;
10653;SDS011;5375;51.250;6.776;2024-01-06T01:22:02;3.50;;;2.30;;
10653;SDS011;5375;51.250;6.776;2024-01-06T01:24:28;3.10;;;2.40;;
10653;SDS011;5375;51.250;6.776;2024-01-06T01:26:54;2.67;;;2.27;;
10653;SDS011;5375;51.250;6.776;2024-01-06T01:29:20;3.77;;;2.50;;
10653;SDS011;5375;51.250;6.776;2024-01-06T01:31:46;3.53;;;2.60;;
10653;SDS011;5375;51.250;6.776;2024-01-06T01:34:12;2.40;;;1.87;;
10653;SDS011;5375;51.250;6.776;2024-01-06T01:36:38;2.83;;;2.20;;
10653;SDS011;5375;51.250;6.776;2024-01-06T01:39:04;3.60;;;2.30;;
10653;SDS011;5375;51.250;6.776;2024-01-06T01:41:31;2.77;;;2.00;;
10653;SDS011;5375;51.250;6.776;2024-01-06T01:43:57;3.23;;;2.40;;
10653;SDS011;5375;51.250;6.776;2024-01-06T01:46:26;2.93;;;2.27;;
10653;SDS011;5375;51.250;6.776;2024-01-06T01:48:56;2.93;;;2.30;;
10653;SDS011;5375;51.250;6.776;2024-01-06T01:51:25;4.63;;;2.00;;
10653;SDS011;5375;51.250;6.776;2024-01-06T01:53:52;3.30;;;2.20;;
10653;SDS011;5375;51.250;6.776;2024-01-06T01:56:18;3.67;;;2.50;;
10653;SDS011;5375;51.250;6.776;2024-01-06T01:58:45;3.67;;;2.27;;
10653;SDS011;5375;51.250;6.776;2024-01-06T02:01:12;2.73;;;2.00;;
10653;SDS011;5375;51.250;6.776;2024-01-06T02:03:38;2.50;;;2.10;;
10653;SDS011;5375;51.250;6.776;2024-01-06T02:06:06;2.87;;;2.17;;
10653;SDS011;5375;51.250;6.776;2024-01-06T02:08:32;2.57;;;2.20;;
10653;SDS011;5375;51.250;6.776;2024-01-06T02:10:58;2.83;;;2.00;;
10653;SDS011;5375;51.250;6.776;2024-01-06T02:13:24;2.33;;;2.13;;
10653;SDS011;5375;51.250;6.776;2024-01-06T02:15:57;3.23;;;2.23;;
10653;SDS011;5375;51.250;6.776;2024-01-06T02:18:23;2.60;;;1.97;;
10653;SDS011;5375;51.250;6.776;2024-01-06T02:20:49;3.20;;;2.07;;
10653;SDS011;5375;51.250;6.776;2024-01-06T02:23:17;3.37;;;2.37;;
10653;SDS011;5375;51.250;6.776;2024-01-06T02:25:42;3.50;;;2.27;;
10653;SDS011;5375;51.250;6.776;2024-01-06T02:28:08;2.03;;;1.83;;
10653;SDS011;5375;51.250;6.776;2024-01-06T02:30:34;2.53;;;1.80;;
10653;SDS011;5375;51.250;6.776;2024-01-06T02:33:00;2.43;;;1.90;;
10653;SDS011;5375;51.250;6.776;2024-01-06T02:35:26;2.10;;;1.90;;
10653;SDS011;5375;51.250;6.776;2024-01-06T02:37:52;2.30;;;1.93;;
10653;SDS011;5375;51.250;6.776;2024-01-06T02:40:18;3.43;;;2.10;;
10653;SDS011;5375;51.250;6.776;2024-01-06T02:42:44;2.53;;;2.07;;
10653;SDS011;5375;51.250;6.776;2024-01-06T02:45:10;2.70;;;2.17;;
10653;SDS011;5375;51.250;6.776;2024-01-06T02:47:36;4.50;;;2.10;;
10653;SDS011;5375;51.250;6.776;2024-01-06T02:50:02;2.33;;;1.83;;
10653;SDS011;5375;51.250;6.776;2024-01-06T02:52:28;2.43;;;1.90;;
10653;SDS011;5375;51.250;6.776;2024-01-06T02:54:54;2.47;;;1.87;;
10653;SDS011;5375;51.250;6.776;2024-01-06T02:57:19;2.40;;;2.03;;
10653;SDS011;5375;51.250;6.776;2024-01-06T02:59:45;2.37;;;1.80;;
10653;SDS011;5375;51.250;6.776;2024-01-06T03:02:11;2.17;;;1.97;;
10653;SDS011;5375;51.250;6.776;2024-01-06T03:04:37;2.77;;;1.90;;
10653;SDS011;5375;51.250;6.776;2024-01-06T03:07:03;2.10;;;1.90;;
10653;SDS011;5375;51.250;6.776;2024-01-06T03:09:29;2.80;;;2.10;;
10653;SDS011;5375;51.250;6.776;2024-01-06T03:11:55;2.70;;;1.87;;
10653;SDS011;5375;51.250;6.776;2024-01-06T03:14:21;2.17;;;1.77;;
10653;SDS011;5375;51.250;6.776;2024-01-06T03:16:47;2.00;;;1.80;;
10653;SDS011;5375;51.250;6.776;2024-01-06T03:19:13;2.23;;;2.00;;
10653;SDS011;5375;51.250;6.776;2024-01-06T03:21:38;1.90;;;1.80;;
10653;SDS011;5375;51.250;6.776;2024-01-06T03:24:04;2.47;;;2.13;;
10653;SDS011;5375;51.250;6.776;2024-01-06T03:26:31;3.33;;;1.80;;
10653;SDS011;5375;51.250;6.776;2024-01-06T03:28:58;2.20;;;1.90;;
10653;SDS011;5375;51.250;6.776;2024-01-06T03:31:24;3.00;;;2.10;;
10653;SDS011;5375;51.250;6.776;2024-01-06T03:33:50;2.33;;;2.10;;
10653;SDS011;5375;51.250;6.776;2024-01-06T03:36:18;3.50;;;2.03;;
10653;SDS011;5375;51.250;6.776;2024-01-06T03:38:44;2.43;;;1.50;;
10653;SDS011;5375;51.250;6.776;2024-01-06T03:41:10;2.40;;;1.90;;
10653;SDS011;5375;51.250;6.776;2024-01-06T03:43:36;2.20;;;2.00;;
10653;SDS011;5375;51.250;6.776;2024-01-06T03:46:02;2.93;;;2.10;;
10653;SDS011;5375;51.250;6.776;2024-01-06T03:48:28;2.00;;;1.73;;
10653;SDS011;5375;51.250;6.776;2024-01-06T03:50:55;1.70;;;1.60;;
10653;SDS011;5375;51.250;6.776;2024-01-06T03:53:21;1.60;;;1.50;;
10653;SDS011;5375;51.250;6.776;2024-01-06T03:55:46;2.13;;;1.93;;
10653;SDS011;5375;51.250;6.776;2024-01-06T03:58:12;2.53;;;1.60;;
10653;SDS011;5375;51.250;6.776;2024-01-06T04:00:38;1.90;;;1.47;;
10653;SDS011;5375;51.250;6.776;2024-01-06T04:03:04;1.60;;;1.40;;
10653;SDS011;5375;51.250;6.776;2024-01-06T04:05:31;2.10;;;1.87;;
10653;SDS011;5375;51.250;6.776;2024-01-06T04:07:57;1.63;;;1.53;;
10653;SDS011;5375;51.250;6.776;2024-01-06T04:10:24;2.07;;;1.87;;
10653;SDS011;5375;51.250;6.776;2024-01-06T04:12:50;1.67;;;1.57;;
10653;SDS011;5375;51.250;6.776;2024-01-06T04:15:15;2.30;;;1.57;;
10653;SDS011;5375;51.250;6.776;2024-01-06T04:17:41;1.80;;;1.47;;
10653;SDS011;5375;51.250;6.776;2024-01-06T04:20:07;1.50;;;1.40;;
10653;SDS011;5375;51.250;6.776;2024-01-06T04:22:36;2.33;;;1.50;;
10653;SDS011;5375;51.250;6.776;2024-01-06T04:25:02;1.57;;;1.47;;
10653;SDS011;5375;51.250;6.776;2024-01-06T04:27:28;1.43;;;1.20;;
10653;SDS011;5375;51.250;6.776;2024-01-06T04:29:54;1.83;;;1.63;;
10653;SDS011;5375;51.250;6.776;2024-01-06T04:32:20;1.50;;;1.40;;
10653;SDS011;5375;51.250;6.776;2024-01-06T04:34:46;1.33;;;1.20;;
10653;SDS011;5375;51.250;6.776;2024-01-06T04:37:12;1.70;;;1.50;;
10653;SDS011;5375;51.250;6.776;2024-01-06T04:39:38;1.60;;;1.40;;
10653;SDS011;5375;51.250;6.776;2024-01-06T04:42:04;2.40;;;1.50;;
10653;SDS011;5375;51.250;6.776;2024-01-06T04:44:30;1.57;;;1.40;;
10653;SDS011;5375;51.250;6.776;2024-01-06T04:46:55;1.47;;;1.37;;
10653;SDS011;5375;51.250;6.776;2024-01-06T04:49:21;1.97;;;1.57;;
10653;SDS011;5375;51.250;6.776;2024-01-06T04:51:47;2.17;;;1.47;;
10653;SDS011;5375;51.250;6.776;2024-01-06T04:54:13;2.40;;;1.50;;
10653;SDS011;5375;51.250;6.776;2024-01-06T04:56:39;1.90;;;1.30;;
10653;SDS011;5375;51.250;6.776;2024-01-06T04:59:05;1.30;;;1.20;;
10653;SDS011;5375;51.250;6.776;2024-01-06T05:01:31;1.37;;;1.10;;
10653;SDS011;5375;51.250;6.776;2024-01-06T05:03:57;1.40;;;1.30;;
10653;SDS011;5375;51.250;6.776;2024-01-06T05:06:24;1.73;;;1.27;;
10653;SDS011;5375;51.250;6.776;2024-01-06T05:08:50;1.77;;;1.33;;
10653;SDS011;5375;51.250;6.776;2024-01-06T05:11:16;1.77;;;1.27;;
10653;SDS011;5375;51.250;6.776;2024-01-06T05:13:42;2.13;;;1.43;;
10653;SDS011;5375;51.250;6.776;2024-01-06T05:16:08;5.67;;;1.37;;
10653;SDS011;5375;51.250;6.776;2024-01-06T05:18:34;4.10;;;1.40;;
10653;SDS011;5375;51.250;6.776;2024-01-06T05:21:00;1.87;;;1.10;;
10653;SDS011;5375;51.250;6.776;2024-01-06T05:23:26;3.90;;;1.20;;
10653;SDS011;5375;51.250;6.776;2024-01-06T05:25:52;1.60;;;1.20;;
10653;SDS011;5375;51.250;6.776;2024-01-06T05:28:18;2.17;;;1.63;;
10653;SDS011;5375;51.250;6.776;2024-01-06T05:30:44;2.27;;;1.53;;
10653;SDS011;5375;51.250;6.776;2024-01-06T05:33:11;4.10;;;1.30;;
10653;SDS011;5375;51.250;6.776;2024-01-06T05:35:40;1.63;;;1.20;;
10653;SDS011;5375;51.250;6.776;2024-01-06T05:38:06;1.10;;;1.00;;
10653;SDS011;5375;51.250;6.776;2024-01-06T05:40:32;2.43;;;1.30;;
10653;SDS011;5375;51.250;6.776;2024-01-06T05:42:58;1.30;;;1.20;;
10653;SDS011;5375;51.250;6.776;2024-01-06T05:45:24;1.10;;;1.00;;
10653;SDS011;5375;51.250;6.776;2024-01-06T05:47:50;1.57;;;1.30;;
10653;SDS011;5375;51.250;6.776;2024-01-06T05:50:16;1.40;;;1.30;;
10653;SDS011;5375;51.250;6.776;2024-01-06T05:52:42;1.30;;;1.10;;
10653;SDS011;5375;51.250;6.776;2024-01-06T05:55:08;1.57;;;1.07;;
10653;SDS011;5375;51.250;6.776;2024-01-06T05:57:34;1.37;;;1.27;;
10653;SDS011;5375;51.250;6.776;2024-01-06T06:00:00;1.10;;;1.00;;
10653;SDS011;5375;51.250;6.776;2024-01-06T06:02:26;1.40;;;1.30;;
10653;SDS011;5375;51.250;6.776;2024-01-06T06:04:52;1.40;;;1.13;;
10653;SDS011;5375;51.250;6.776;2024-01-06T06:07:18;1.30;;;1.20;;
10653;SDS011;5375;51.250;6.776;2024-01-06T06:09:45;1.57;;;1.20;;
10653;SDS011;5375;51.250;6.776;2024-01-06T06:12:13;1.73;;;1.10;;
10653;SDS011;5375;51.250;6.776;2024-01-06T06:14:39;2.57;;;1.30;;
10653;SDS011;5375;51.250;6.776;2024-01-06T06:17:05;1.47;;;1.10;;
10653;SDS011;5375;51.250;6.776;2024-01-06T06:19:31;1.30;;;1.20;;
10653;SDS011;5375;51.250;6.776;2024-01-06T06:21:57;1.30;;;1.10;;
10653;SDS011;5375;51.250;6.776;2024-01-06T06:24:24;1.47;;;0.90;;
10653;SDS011;5375;51.250;6.776;2024-01-06T06:26:49;1.67;;;1.30;;
10653;SDS011;5375;51.250;6.776;2024-01-06T06:29:15;1.37;;;1.00;;
10653;SDS011;5375;51.250;6.776;2024-01-06T06:31:41;2.00;;;1.00;;
10653;SDS011;5375;51.250;6.776;2024-01-06T06:34:11;3.33;;;1.13;;
10653;SDS011;5375;51.250;6.776;2024-01-06T06:36:37;1.23;;;1.00;;
10653;SDS011;5375;51.250;6.776;2024-01-06T06:39:03;1.77;;;0.90;;
10653;SDS011;5375;51.250;6.776;2024-01-06T06:41:29;1.20;;;1.07;;
10653;SDS011;5375;51.250;6.776;2024-01-06T06:43:57;2.17;;;1.00;;
10653;SDS011;5375;51.250;6.776;2024-01-06T06:46:23;6.43;;;1.10;;
10653;SDS011;5375;51.250;6.776;2024-01-06T06:48:49;1.30;;;1.20;;
10653;SDS011;5375;51.250;6.776;2024-01-06T06:51:15;1.27;;;0.90;;
10653;SDS011;5375;51.250;6.776;2024-01-06T06:53:41;1.93;;;0.90;;
10653;SDS011;5375;51.250;6.776;2024-01-06T06:56:07;2.10;;;0.97;;
10653;SDS011;5375;51.250;6.776;2024-01-06T06:58:34;2.30;;;1.30;;
10653;SDS011;5375;51.250;6.776;2024-01-06T07:01:00;1.23;;;1.10;;
10653;SDS011;5375;51.250;6.776;2024-01-06T07:03:26;2.23;;;1.00;;
10653;SDS011;5375;51.250;6.776;2024-01-06T07:05:52;2.10;;;1.10;;
10653;SDS011;5375;51.250;6.776;2024-01-06T07:08:19;1.20;;;1.10;;
10653;SDS011;5375;51.250;6.776;2024-01-06T07:10:45;1.10;;;1.00;;
10653;SDS011;5375;51.250;6.776;2024-01-06T07:13:11;1.27;;;0.97;;
10653;SDS011;5375;51.250;6.776;2024-01-06T07:15:37;1.20;;;1.10;;
10653;SDS011;5375;51.250;6.776;2024-01-06T07:18:03;2.33;;;1.20;;
10653;SDS011;5375;51.250;6.776;2024-01-06T07:20:29;1.20;;;1.07;;
10653;SDS011;5375;51.250;6.776;2024-01-06T07:22:55;2.60;;;1.10;;
10653;SDS011;5375;51.250;6.776;2024-01-06T07:25:27;1.57;;;1.30;;
10653;SDS011;5375;51.250;6.776;2024-01-06T07:27:52;1.33;;;1.00;;
10653;SDS011;5375;51.250;6.776;2024-01-06T07:30:18;2.07;;;1.27;;
10653;SDS011;5375;51.250;6.776;2024-01-06T07:32:44;1.00;;;0.90;;
10653;SDS011;5375;51.250;6.776;2024-01-06T07:35:10;0.83;;;0.80;;
10653;SDS011;5375;51.250;6.776;2024-01-06T07:37:36;1.33;;;1.00;;
10653;SDS011;5375;51.250;6.776;2024-01-06T07:40:02;2.90;;;1.17;;
10653;SDS011;5375;51.250;6.776;2024-01-06T07:42:28;1.00;;;0.90;;
10653;SDS011;5375;51.250;6.776;2024-01-06T07:44:54;1.63;;;1.13;;
10653;SDS011;5375;51.250;6.776;2024-01-06T07:47:20;1.40;;;1.00;;
10653;SDS011;5375;51.250;6.776;2024-01-06T07:49:46;1.37;;;1.07;;
10653;SDS011;5375;51.250;6.776;2024-01-06T07:52:13;1.10;;;1.00;;
10653;SDS011;5375;51.250;6.776;2024-01-06T07:54:38;1.07;;;0.97;;
10653;SDS011;5375;51.250;6.776;2024-01-06T07:57:04;1.03;;;0.77;;
10653;SDS011;5375;51.250;6.776;2024-01-06T07:59:30;2.10;;;1.00;;
10653;SDS011;5375;51.250;6.776;2024-01-06T08:01:56;0.83;;;0.83;;
10653;SDS011;5375;51.250;6.776;2024-01-06T08:04:23;1.13;;;1.00;;
10653;SDS011;5375;51.250;6.776;2024-01-06T08:06:49;2.13;;;1.10;;
10653;SDS011;5375;51.250;6.776;2024-01-06T08:09:15;3.47;;;0.90;;
10653;SDS011;5375;51.250;6.776;2024-01-06T08:11:41;1.00;;;0.87;;
10653;SDS011;5375;51.250;6.776;2024-01-06T08:14:10;1.37;;;1.00;;
10653;SDS011;5375;51.250;6.776;2024-01-06T08:16:36;1.00;;;0.90;;
10653;SDS011;5375;51.250;6.776;2024-01-06T08:19:02;1.07;;;0.90;;
10653;SDS011;5375;51.250;6.776;2024-01-06T08:21:28;1.37;;;0.80;;
10653;SDS011;5375;51.250;6.776;2024-01-06T08:23:54;1.40;;;0.93;;
10653;SDS011;5375;51.250;6.776;2024-01-06T08:26:27;1.60;;;1.00;;
10653;SDS011;5375;51.250;6.776;2024-01-06T08:28:52;2.07;;;0.93;;
10653;SDS011;5375;51.250;6.776;2024-01-06T08:31:18;1.70;;;0.90;;
10653;SDS011;5375;51.250;6.776;2024-01-06T08:33:44;1.87;;;0.90;;
10653;SDS011;5375;51.250;6.776;2024-01-06T08:36:11;0.90;;;0.70;;
10653;SDS011;5375;51.250;6.776;2024-01-06T08:38:37;1.40;;;0.93;;
10653;SDS011;5375;51.250;6.776;2024-01-06T08:41:03;2.23;;;0.90;;
10653;SDS011;5375;51.250;6.776;2024-01-06T08:43:29;2.53;;;0.90;;
10653;SDS011;5375;51.250;6.776;2024-01-06T08:45:55;1.63;;;0.90;;
10653;SDS011;5375;51.250;6.776;2024-01-06T08:48:20;1.67;;;0.90;;
10653;SDS011;5375;51.250;6.776;2024-01-06T08:50:47;1.20;;;0.97;;
10653;SDS011;5375;51.250;6.776;2024-01-06T08:53:13;1.10;;;0.80;;
10653;SDS011;5375;51.250;6.776;2024-01-06T08:55:39;3.53;;;1.20;;
10653;SDS011;5375;51.250;6.776;2024-01-06T08:58:05;2.90;;;1.00;;
10653;SDS011;5375;51.250;6.776;2024-01-06T09:00:31;1.33;;;1.10;;
10653;SDS011;5375;51.250;6.776;2024-01-06T09:02:57;2.00;;;1.10;;
10653;SDS011;5375;51.250;6.776;2024-01-06T09:05:23;1.40;;;1.00;;
10653;SDS011;5375;51.250;6.776;2024-01-06T09:07:49;1.23;;;0.90;;
10653;SDS011;5375;51.250;6.776;2024-01-06T09:10:18;0.97;;;0.87;;
10653;SDS011;5375;51.250;6.776;2024-01-06T09:12:47;1.20;;;1.03;;
10653;SDS011;5375;51.250;6.776;2024-01-06T09:15:12;1.13;;;1.00;;
10653;SDS011;5375;51.250;6.776;2024-01-06T09:17:38;1.40;;;1.10;;
10653;SDS011;5375;51.250;6.776;2024-01-06T09:20:04;2.07;;;1.20;;
10653;SDS011;5375;51.250;6.776;2024-01-06T09:22:31;1.70;;;0.90;;
10653;SDS011;5375;51.250;6.776;2024-01-06T09:24:57;2.40;;;1.10;;
10653;SDS011;5375;51.250;6.776;2024-01-06T09:27:24;1.23;;;1.00;;
10653;SDS011;5375;51.250;6.776;2024-01-06T09:29:50;1.30;;;1.03;;
10653;SDS011;5375;51.250;6.776;2024-01-06T09:32:16;1.50;;;1.00;;
10653;SDS011;5375;51.250;6.776;2024-01-06T09:34:42;1.00;;;0.73;;
10653;SDS011;5375;51.250;6.776;2024-01-06T09:37:08;1.67;;;1.00;;
10653;SDS011;5375;51.250;6.776;2024-01-06T09:39:34;1.00;;;0.87;;
10653;SDS011;5375;51.250;6.776;2024-01-06T09:42:00;2.63;;;1.20;;
10653;SDS011;5375;51.250;6.776;2024-01-06T09:44:26;1.23;;;1.00;;
10653;SDS011;5375;51.250;6.776;2024-01-06T09:46:52;1.60;;;1.00;;
10653;SDS011;5375;51.250;6.776;2024-01-06T09:49:22;1.47;;;1.13;;
10653;SDS011;5375;51.250;6.776;2024-01-06T09:51:49;1.53;;;0.80;;
10653;SDS011;5375;51.250;6.776;2024-01-06T09:54:16;1.60;;;1.17;;
10653;SDS011;5375;51.250;6.776;2024-01-06T09:56:49;2.07;;;1.10;;
10653;SDS011;5375;51.250;6.776;2024-01-06T09:59:15;2.37;;;1.10;;
10653;SDS011;5375;51.250;6.776;2024-01-06T10:01:41;1.60;;;1.20;;
10653;SDS011;5375;51.250;6.776;2024-01-06T10:04:08;1.97;;;1.10;;
10653;SDS011;5375;51.250;6.776;2024-01-06T10:06:36;5.30;;;1.73;;
10653;SDS011;5375;51.250;6.776;2024-01-06T10:09:02;1.90;;;1.40;;
10653;SDS011;5375;51.250;6.776;2024-01-06T10:11:30;3.80;;;1.50;;
10653;SDS011;5375;51.250;6.776;2024-01-06T10:13:56;3.57;;;1.50;;
10653;SDS011;5375;51.250;6.776;2024-01-06T10:16:22;3.63;;;1.70;;
10653;SDS011;5375;51.250;6.776;2024-01-06T10:18:48;3.03;;;1.70;;
10653;SDS011;5375;51.250;6.776;2024-01-06T10:21:14;3.83;;;1.63;;
10653;SDS011;5375;51.250;6.776;2024-01-06T10:23:42;3.63;;;1.97;;
10653;SDS011;5375;51.250;6.776;2024-01-06T10:26:12;3.07;;;1.83;;
10653;SDS011;5375;51.250;6.776;2024-01-06T10:28:38;2.13;;;1.70;;
10653;SDS011;5375;51.250;6.776;2024-01-06T10:31:07;5.80;;;1.80;;
10653;SDS011;5375;51.250;6.776;2024-01-06T10:33:33;2.33;;;1.43;;
10653;SDS011;5375;51.250;6.776;2024-01-06T10:35:59;2.13;;;1.53;;
10653;SDS011;5375;51.250;6.776;2024-01-06T10:38:26;2.93;;;1.70;;
10653;SDS011;5375;51.250;6.776;2024-01-06T10:40:56;1.73;;;1.40;;
10653;SDS011;5375;51.250;6.776;2024-01-06T10:43:31;3.80;;;1.50;;
10653;SDS011;5375;51.250;6.776;2024-01-06T10:46:02;2.70;;;1.40;;
10653;SDS011;5375;51.250;6.776;2024-01-06T10:48:30;3.30;;;1.63;;
10653;SDS011;5375;51.250;6.776;2024-01-06T10:50:58;3.83;;;1.50;;
10653;SDS011;5375;51.250;6.776;2024-01-06T10:53:26;4.60;;;1.60;;
10653;SDS011;5375;51.250;6.776;2024-01-06T10:55:52;1.73;;;1.50;;
10653;SDS011;5375;51.250;6.776;2024-01-06T10:58:18;2.20;;;1.50;;
10653;SDS011;5375;51.250;6.776;2024-01-06T11:00:45;2.70;;;1.30;;
10653;SDS011;5375;51.250;6.776;2024-01-06T11:03:11;2.30;;;1.70;;
10653;SDS011;5375;51.250;6.776;2024-01-06T11:05:39;2.47;;;1.50;;
10653;SDS011;5375;51.250;6.776;2024-01-06T11:08:06;2.33;;;1.40;;
10653;SDS011;5375;51.250;6.776;2024-01-06T11:10:32;2.03;;;1.40;;
10653;SDS011;5375;51.250;6.776;2024-01-06T11:13:21;2.43;;;1.40;;
10653;SDS011;5375;51.250;6.776;2024-01-06T11:15:48;2.00;;;1.40;;
10653;SDS011;5375;51.250;6.776;2024-01-06T11:18:34;3.73;;;2.17;;
10653;SDS011;5375;51.250;6.776;2024-01-06T11:21:16;3.10;;;1.80;;
10653;SDS011;5375;51.250;6.776;2024-01-06T11:24:03;2.87;;;1.80;;
10653;SDS011;5375;51.250;6.776;2024-01-06T11:26:32;1.60;;;1.50;;
10653;SDS011;5375;51.250;6.776;2024-01-06T11:28:58;4.43;;;1.60;;
10653;SDS011;5375;51.250;6.776;2024-01-06T11:31:31;4.63;;;1.47;;
10653;SDS011;5375;51.250;6.776;2024-01-06T11:33:57;3.53;;;1.67;;
10653;SDS011;5375;51.250;6.776;2024-01-06T11:36:40;2.77;;;1.50;;
10653;SDS011;5375;51.250;6.776;2024-01-06T11:39:06;2.53;;;1.60;;
10653;SDS011;5375;51.250;6.776;2024-01-06T11:41:46;5.27;;;1.90;;
10653;SDS011;5375;51.250;6.776;2024-01-06T11:44:14;2.53;;;1.60;;
10653;SDS011;5375;51.250;6.776;2024-01-06T11:46:43;2.53;;;1.77;;
10653;SDS011;5375;51.250;6.776;2024-01-06T11:49:10;2.87;;;1.83;;
10653;SDS011;5375;51.250;6.776;2024-01-06T11:51:36;3.67;;;1.67;;
10653;SDS011;5375;51.250;6.776;2024-01-06T11:54:02;4.37;;;1.70;;
10653;SDS011;5375;51.250;6.776;2024-01-06T11:56:28;3.60;;;1.73;;
10653;SDS011;5375;51.250;6.776;2024-01-06T11:58:54;3.60;;;1.73;;
10653;SDS011;5375;51.250;6.776;2024-01-06T12:01:21;1.87;;;1.60;;
10653;SDS011;5375;51.250;6.776;2024-01-06T12:03:47;3.07;;;1.80;;
10653;SDS011;5375;51.250;6.776;2024-01-06T12:06:20;2.13;;;1.70;;
10653;SDS011;5375;51.250;6.776;2024-01-06T12:08:50;8.43;;;1.80;;
10653;SDS011;5375;51.250;6.776;2024-01-06T12:11:17;4.13;;;1.83;;
10653;SDS011;5375;51.250;6.776;2024-01-06T12:13:46;3.20;;;2.03;;
10653;SDS011;5375;51.250;6.776;2024-01-06T12:16:12;3.07;;;2.07;;
10653;SDS011;5375;51.250;6.776;2024-01-06T12:18:38;5.53;;;1.60;;
10653;SDS011;5375;51.250;6.776;2024-01-06T12:21:04;3.90;;;2.00;;
10653;SDS011;5375;51.250;6.776;2024-01-06T12:23:30;3.87;;;1.93;;
10653;SDS011;5375;51.250;6.776;2024-01-06T12:25:56;6.03;;;2.00;;
10653;SDS011;5375;51.250;6.776;2024-01-06T12:28:21;4.00;;;2.03;;
10653;SDS011;5375;51.250;6.776;2024-01-06T12:30:48;3.27;;;2.30;;
10653;SDS011;5375;51.250;6.776;2024-01-06T12:33:14;3.40;;;1.93;;
10653;SDS011;5375;51.250;6.776;2024-01-06T12:35:40;3.50;;;1.93;;
10653;SDS011;5375;51.250;6.776;2024-01-06T12:38:08;3.13;;;2.00;;
10653;SDS011;5375;51.250;6.776;2024-01-06T12:40:37;3.77;;;1.80;;
10653;SDS011;5375;51.250;6.776;2024-01-06T12:43:06;3.90;;;1.90;;
10653;SDS011;5375;51.250;6.776;2024-01-06T12:45:31;3.53;;;1.80;;
10653;SDS011;5375;51.250;6.776;2024-01-06T12:47:58;3.07;;;1.83;;
10653;SDS011;5375;51.250;6.776;2024-01-06T12:50:24;2.40;;;1.70;;
10653;SDS011;5375;51.250;6.776;2024-01-06T12:52:50;3.80;;;1.87;;
10653;SDS011;5375;51.250;6.776;2024-01-06T12:55:16;5.07;;;1.80;;
10653;SDS011;5375;51.250;6.776;2024-01-06T12:57:42;2.63;;;1.67;;
10653;SDS011;5375;51.250;6.776;2024-01-06T13:00:08;2.30;;;1.40;;
10653;SDS011;5375;51.250;6.776;2024-01-06T13:02:36;4.60;;;1.83;;
10653;SDS011;5375;51.250;6.776;2024-01-06T13:05:03;2.97;;;1.63;;
10653;SDS011;5375;51.250;6.776;2024-01-06T13:07:29;2.90;;;1.70;;
10653;SDS011;5375;51.250;6.776;2024-01-06T13:09:55;2.23;;;1.60;;
10653;SDS011;5375;51.250;6.776;2024-01-06T13:12:21;3.27;;;1.57;;
10653;SDS011;5375;51.250;6.776;2024-01-06T13:14:48;4.13;;;2.00;;
10653;SDS011;5375;51.250;6.776;2024-01-06T13:17:15;2.53;;;1.40;;
10653;SDS011;5375;51.250;6.776;2024-01-06T13:19:41;3.03;;;1.40;;
10653;SDS011;5375;51.250;6.776;2024-01-06T13:22:07;2.73;;;1.77;;
10653;SDS011;5375;51.250;6.776;2024-01-06T13:24:33;5.07;;;1.47;;
10653;SDS011;5375;51.250;6.776;2024-01-06T13:26:59;5.30;;;1.63;;
10653;SDS011;5375;51.250;6.776;2024-01-06T13:29:27;3.37;;;1.43;;
10653;SDS011;5375;51.250;6.776;2024-01-06T13:31:53;2.47;;;1.37;;
10653;SDS011;5375;51.250;6.776;2024-01-06T13:34:19;3.63;;;1.77;;
10653;SDS011;5375;51.250;6.776;2024-01-06T13:36:46;3.63;;;1.70;;
10653;SDS011;5375;51.250;6.776;2024-01-06T13:39:12;4.27;;;1.73;;
10653;SDS011;5375;51.250;6.776;2024-01-06T13:41:45;3.13;;;1.53;;
10653;SDS011;5375;51.250;6.776;2024-01-06T13:44:11;2.00;;;1.40;;
10653;SDS011;5375;51.250;6.776;2024-01-06T13:46:37;2.57;;;1.70;;
10653;SDS011;5375;51.250;6.776;2024-01-06T13:49:03;2.47;;;1.60;;
10653;SDS011;5375;51.250;6.776;2024-01-06T13:51:29;3.67;;;1.80;;
10653;SDS011;5375;51.250;6.776;2024-01-06T13:53:55;2.73;;;1.60;;
10653;SDS011;5375;51.250;6.776;2024-01-06T13:56:22;3.80;;;2.00;;
10653;SDS011;5375;51.250;6.776;2024-01-06T13:58:48;2.30;;;1.50;;
10653;SDS011;5375;51.250;6.776;2024-01-06T14:01:16;2.77;;;1.60;;
10653;SDS011;5375;51.250;6.776;2024-01-06T14:03:42;2.57;;;1.70;;
10653;SDS011;5375;51.250;6.776;2024-01-06T14:06:07;2.10;;;1.30;;
10653;SDS011;5375;51.250;6.776;2024-01-06T14:08:34;2.90;;;1.50;;
10653;SDS011;5375;51.250;6.776;2024-01-06T14:11:00;2.40;;;1.40;;
10653;SDS011;5375;51.250;6.776;2024-01-06T14:13:26;1.90;;;1.50;;
10653;SDS011;5375;51.250;6.776;2024-01-06T14:15:51;4.13;;;1.50;;
10653;SDS011;5375;51.250;6.776;2024-01-06T14:18:17;2.63;;;1.60;;
10653;SDS011;5375;51.250;6.776;2024-01-06T14:20:43;2.03;;;1.20;;
10653;SDS011;5375;51.250;6.776;2024-01-06T14:23:11;3.00;;;1.40;;
10653;SDS011;5375;51.250;6.776;2024-01-06T14:25:42;3.90;;;1.50;;
10653;SDS011;5375;51.250;6.776;2024-01-06T14:28:08;2.70;;;1.40;;
10653;SDS011;5375;51.250;6.776;2024-01-06T14:30:34;2.40;;;1.40;;
10653;SDS011;5375;51.250;6.776;2024-01-06T14:33:00;3.97;;;1.40;;
10653;SDS011;5375;51.250;6.776;2024-01-06T14:35:26;1.70;;;1.30;;
10653;SDS011;5375;51.250;6.776;2024-01-06T14:37:52;2.10;;;1.63;;
10653;SDS011;5375;51.250;6.776;2024-01-06T14:40:19;3.43;;;1.60;;
10653;SDS011;5375;51.250;6.776;2024-01-06T14:42:45;2.07;;;1.20;;
10653;SDS011;5375;51.250;6.776;2024-01-06T14:45:11;2.30;;;1.57;;
10653;SDS011;5375;51.250;6.776;2024-01-06T14:47:37;2.87;;;1.67;;
10653;SDS011;5375;51.250;6.776;2024-01-06T14:50:03;2.53;;;1.30;;
10653;SDS011;5375;51.250;6.776;2024-01-06T14:52:29;2.30;;;1.17;;
10653;SDS011;5375;51.250;6.776;2024-01-06T14:54:55;2.93;;;1.33;;
10653;SDS011;5375;51.250;6.776;2024-01-06T14:57:21;3.67;;;1.47;;